sensor_id;sensor_type;location;lat;lon;timestamp;P1;durP1;ratioP1;P2;durP2;ratioP2
15295;SDS011;7749;49.964;7.890;2023-05-07T00:01:43;3.83;;;2.17;;
15295;SDS011;7749;49.964;7.890;2023-05-07T00:04:11;3.20;;;1.90;;
15295;SDS011;7749;49.964;7.890;2023-05-07T00:06:40;2.47;;;1.83;;
15295;SDS011;7749;49.964;7.890;2023-05-07T00:09:08;2.10;;;1.60;;
15295;SDS011;7749;49.964;7.890;2023-05-07T00:11:36;4.27;;;2.20;;
15295;SDS011;7749;49.964;7.890;2023-05-07T00:14:06;5.80;;;1.90;;
15295;SDS011;7749;49.964;7.890;2023-05-07T00:16:34;3.57;;;1.87;;
15295;SDS011;7749;49.964;7.890;2023-05-07T00:19:01;1.73;;;1.60;;
15295;SDS011;7749;49.964;7.890;2023-05-07T00:21:29;2.67;;;1.53;;
15295;SDS011;7749;49.964;7.890;2023-05-07T00:23:57;2.57;;;1.80;;
15295;SDS011;7749;49.964;7.890;2023-05-07T00:26:25;2.93;;;1.93;;
15295;SDS011;7749;49.964;7.890;2023-05-07T00:28:53;3.93;;;2.43;;
15295;SDS011;7749;49.964;7.890;2023-05-07T00:31:21;2.73;;;2.00;;
15295;SDS011;7749;49.964;7.890;2023-05-07T00:33:49;2.60;;;2.27;;
15295;SDS011;7749;49.964;7.890;2023-05-07T00:36:16;2.20;;;1.90;;
15295;SDS011;7749;49.964;7.890;2023-05-07T00:38:44;2.90;;;1.97;;
15295;SDS011;7749;49.964;7.890;2023-05-07T00:41:12;3.27;;;1.70;;
15295;SDS011;7749;49.964;7.890;2023-05-07T00:43:40;3.50;;;1.90;;
15295;SDS011;7749;49.964;7.890;2023-05-07T00:46:07;2.90;;;1.83;;
15295;SDS011;7749;49.964;7.890;2023-05-07T00:48:39;1.90;;;1.70;;
15295;SDS011;7749;49.964;7.890;2023-05-07T00:51:07;2.80;;;1.80;;
15295;SDS011;7749;49.964;7.890;2023-05-07T00:53:36;3.10;;;1.90;;
15295;SDS011;7749;49.964;7.890;2023-05-07T00:56:05;1.80;;;1.70;;
15295;SDS011;7749;49.964;7.890;2023-05-07T00:58:36;3.90;;;1.80;;
15295;SDS011;7749;49.964;7.890;2023-05-07T01:01:05;2.30;;;1.80;;
15295;SDS011;7749;49.964;7.890;2023-05-07T01:03:33;3.83;;;1.77;;
15295;SDS011;7749;49.964;7.890;2023-05-07T01:06:01;2.20;;;1.97;;
15295;SDS011;7749;49.964;7.890;2023-05-07T01:08:31;2.13;;;1.70;;
15295;SDS011;7749;49.964;7.890;2023-05-07T01:11:03;2.33;;;1.83;;
15295;SDS011;7749;49.964;7.890;2023-05-07T01:13:30;2.60;;;2.00;;
15295;SDS011;7749;49.964;7.890;2023-05-07T01:15:58;2.70;;;2.13;;
15295;SDS011;7749;49.964;7.890;2023-05-07T01:18:28;2.67;;;2.40;;
15295;SDS011;7749;49.964;7.890;2023-05-07T01:20:59;5.87;;;2.30;;
15295;SDS011;7749;49.964;7.890;2023-05-07T01:23:31;2.20;;;2.00;;
15295;SDS011;7749;49.964;7.890;2023-05-07T01:26:00;2.37;;;2.17;;
15295;SDS011;7749;49.964;7.890;2023-05-07T01:28:28;2.77;;;2.27;;
15295;SDS011;7749;49.964;7.890;2023-05-07T01:30:56;3.07;;;1.97;;
15295;SDS011;7749;49.964;7.890;2023-05-07T01:33:29;3.00;;;2.23;;
15295;SDS011;7749;49.964;7.890;2023-05-07T01:36:00;4.17;;;2.20;;
15295;SDS011;7749;49.964;7.890;2023-05-07T01:38:33;2.53;;;2.30;;
15295;SDS011;7749;49.964;7.890;2023-05-07T01:41:10;3.67;;;2.20;;
15295;SDS011;7749;49.964;7.890;2023-05-07T01:43:40;3.23;;;2.23;;
15295;SDS011;7749;49.964;7.890;2023-05-07T01:46:12;2.40;;;2.20;;
15295;SDS011;7749;49.964;7.890;2023-05-07T01:48:40;3.43;;;1.90;;
15295;SDS011;7749;49.964;7.890;2023-05-07T01:51:11;2.57;;;1.90;;
15295;SDS011;7749;49.964;7.890;2023-05-07T01:53:39;2.40;;;2.00;;
15295;SDS011;7749;49.964;7.890;2023-05-07T01:56:07;3.53;;;2.00;;
15295;SDS011;7749;49.964;7.890;2023-05-07T01:58:35;2.60;;;2.17;;
15295;SDS011;7749;49.964;7.890;2023-05-07T02:01:03;4.80;;;1.90;;
15295;SDS011;7749;49.964;7.890;2023-05-07T02:03:31;3.63;;;2.23;;
15295;SDS011;7749;49.964;7.890;2023-05-07T02:05:58;4.93;;;2.60;;
15295;SDS011;7749;49.964;7.890;2023-05-07T02:08:26;2.20;;;2.00;;
15295;SDS011;7749;49.964;7.890;2023-05-07T02:10:56;2.17;;;1.87;;
15295;SDS011;7749;49.964;7.890;2023-05-07T02:13:25;2.63;;;1.80;;
15295;SDS011;7749;49.964;7.890;2023-05-07T02:15:57;3.00;;;2.20;;
15295;SDS011;7749;49.964;7.890;2023-05-07T02:18:25;2.63;;;2.10;;
15295;SDS011;7749;49.964;7.890;2023-05-07T02:20:52;3.63;;;2.10;;
15295;SDS011;7749;49.964;7.890;2023-05-07T02:23:20;3.03;;;2.20;;
15295;SDS011;7749;49.964;7.890;2023-05-07T02:25:48;3.13;;;2.10;;
15295;SDS011;7749;49.964;7.890;2023-05-07T02:28:16;3.00;;;2.00;;
15295;SDS011;7749;49.964;7.890;2023-05-07T02:30:44;2.63;;;2.10;;
15295;SDS011;7749;49.964;7.890;2023-05-07T02:33:12;2.73;;;1.87;;
15295;SDS011;7749;49.964;7.890;2023-05-07T02:35:43;2.83;;;2.10;;
15295;SDS011;7749;49.964;7.890;2023-05-07T02:38:10;3.13;;;2.40;;
15295;SDS011;7749;49.964;7.890;2023-05-07T02:40:38;4.63;;;2.43;;
15295;SDS011;7749;49.964;7.890;2023-05-07T02:43:06;3.20;;;2.00;;
15295;SDS011;7749;49.964;7.890;2023-05-07T02:45:35;2.83;;;1.90;;
15295;SDS011;7749;49.964;7.890;2023-05-07T02:48:06;3.03;;;2.27;;
15295;SDS011;7749;49.964;7.890;2023-05-07T02:50:34;4.17;;;2.63;;
15295;SDS011;7749;49.964;7.890;2023-05-07T02:53:04;3.03;;;2.17;;
15295;SDS011;7749;49.964;7.890;2023-05-07T02:55:32;2.23;;;2.00;;
15295;SDS011;7749;49.964;7.890;2023-05-07T02:58:00;3.97;;;2.30;;
15295;SDS011;7749;49.964;7.890;2023-05-07T03:00:31;2.90;;;2.43;;
15295;SDS011;7749;49.964;7.890;2023-05-07T03:02:59;2.57;;;2.03;;
15295;SDS011;7749;49.964;7.890;2023-05-07T03:05:27;3.20;;;2.57;;
15295;SDS011;7749;49.964;7.890;2023-05-07T03:07:55;2.00;;;1.80;;
15295;SDS011;7749;49.964;7.890;2023-05-07T03:10:26;3.20;;;2.00;;
15295;SDS011;7749;49.964;7.890;2023-05-07T03:12:54;2.97;;;2.20;;
15295;SDS011;7749;49.964;7.890;2023-05-07T03:15:28;2.23;;;2.03;;
15295;SDS011;7749;49.964;7.890;2023-05-07T03:17:58;2.77;;;2.20;;
15295;SDS011;7749;49.964;7.890;2023-05-07T03:20:25;2.90;;;1.90;;
15295;SDS011;7749;49.964;7.890;2023-05-07T03:22:53;3.43;;;1.90;;
15295;SDS011;7749;49.964;7.890;2023-05-07T03:25:21;2.17;;;1.97;;
15295;SDS011;7749;49.964;7.890;2023-05-07T03:27:49;2.90;;;2.00;;
15295;SDS011;7749;49.964;7.890;2023-05-07T03:30:17;2.03;;;1.87;;
15295;SDS011;7749;49.964;7.890;2023-05-07T03:32:46;2.53;;;2.10;;
15295;SDS011;7749;49.964;7.890;2023-05-07T03:35:14;3.57;;;2.50;;
15295;SDS011;7749;49.964;7.890;2023-05-07T03:37:41;3.60;;;2.50;;
15295;SDS011;7749;49.964;7.890;2023-05-07T03:40:10;3.90;;;2.60;;
15295;SDS011;7749;49.964;7.890;2023-05-07T03:42:40;4.40;;;2.00;;
15295;SDS011;7749;49.964;7.890;2023-05-07T03:45:08;2.17;;;1.97;;
15295;SDS011;7749;49.964;7.890;2023-05-07T03:47:36;3.60;;;2.27;;
15295;SDS011;7749;49.964;7.890;2023-05-07T03:50:04;2.60;;;2.40;;
15295;SDS011;7749;49.964;7.890;2023-05-07T03:52:32;2.30;;;2.10;;
15295;SDS011;7749;49.964;7.890;2023-05-07T03:55:00;4.20;;;2.30;;
15295;SDS011;7749;49.964;7.890;2023-05-07T03:57:30;2.83;;;1.93;;
15295;SDS011;7749;49.964;7.890;2023-05-07T03:59:57;2.20;;;1.90;;
15295;SDS011;7749;49.964;7.890;2023-05-07T04:02:25;2.90;;;2.30;;
15295;SDS011;7749;49.964;7.890;2023-05-07T04:04:53;2.80;;;2.10;;
15295;SDS011;7749;49.964;7.890;2023-05-07T04:07:22;2.43;;;2.00;;
15295;SDS011;7749;49.964;7.890;2023-05-07T04:09:49;4.77;;;2.17;;
15295;SDS011;7749;49.964;7.890;2023-05-07T04:12:17;3.23;;;1.87;;
15295;SDS011;7749;49.964;7.890;2023-05-07T04:14:45;3.73;;;2.00;;
15295;SDS011;7749;49.964;7.890;2023-05-07T04:17:12;2.67;;;2.10;;
15295;SDS011;7749;49.964;7.890;2023-05-07T04:19:40;2.37;;;2.17;;
15295;SDS011;7749;49.964;7.890;2023-05-07T04:22:12;3.33;;;2.23;;
15295;SDS011;7749;49.964;7.890;2023-05-07T04:24:43;3.60;;;2.30;;
15295;SDS011;7749;49.964;7.890;2023-05-07T04:27:11;1.90;;;1.80;;
15295;SDS011;7749;49.964;7.890;2023-05-07T04:29:39;2.97;;;2.33;;
15295;SDS011;7749;49.964;7.890;2023-05-07T04:32:09;2.33;;;2.13;;
15295;SDS011;7749;49.964;7.890;2023-05-07T04:34:39;3.00;;;2.20;;
15295;SDS011;7749;49.964;7.890;2023-05-07T04:37:08;2.27;;;2.07;;
15295;SDS011;7749;49.964;7.890;2023-05-07T04:39:39;2.57;;;2.23;;
15295;SDS011;7749;49.964;7.890;2023-05-07T04:42:07;2.30;;;2.10;;
15295;SDS011;7749;49.964;7.890;2023-05-07T04:44:35;2.80;;;2.50;;
15295;SDS011;7749;49.964;7.890;2023-05-07T04:47:04;3.50;;;2.30;;
15295;SDS011;7749;49.964;7.890;2023-05-07T04:49:32;2.90;;;2.50;;
15295;SDS011;7749;49.964;7.890;2023-05-07T04:52:00;3.40;;;2.40;;
15295;SDS011;7749;49.964;7.890;2023-05-07T04:54:37;2.57;;;2.27;;
15295;SDS011;7749;49.964;7.890;2023-05-07T04:57:04;2.87;;;2.17;;
15295;SDS011;7749;49.964;7.890;2023-05-07T04:59:33;2.77;;;2.37;;
15295;SDS011;7749;49.964;7.890;2023-05-07T05:02:00;4.10;;;2.20;;
15295;SDS011;7749;49.964;7.890;2023-05-07T05:04:31;2.80;;;2.20;;
15295;SDS011;7749;49.964;7.890;2023-05-07T05:06:59;2.50;;;2.30;;
15295;SDS011;7749;49.964;7.890;2023-05-07T05:09:27;2.40;;;2.20;;
15295;SDS011;7749;49.964;7.890;2023-05-07T05:12:00;4.13;;;3.00;;
15295;SDS011;7749;49.964;7.890;2023-05-07T05:14:31;3.43;;;2.27;;
15295;SDS011;7749;49.964;7.890;2023-05-07T05:16:59;2.63;;;2.20;;
15295;SDS011;7749;49.964;7.890;2023-05-07T05:19:27;2.53;;;2.27;;
15295;SDS011;7749;49.964;7.890;2023-05-07T05:21:55;3.33;;;2.20;;
15295;SDS011;7749;49.964;7.890;2023-05-07T05:24:23;2.47;;;1.97;;
15295;SDS011;7749;49.964;7.890;2023-05-07T05:26:52;2.13;;;1.93;;
15295;SDS011;7749;49.964;7.890;2023-05-07T05:29:20;2.27;;;2.03;;
15295;SDS011;7749;49.964;7.890;2023-05-07T05:31:51;3.60;;;2.10;;
15295;SDS011;7749;49.964;7.890;2023-05-07T05:34:19;1.93;;;1.70;;
15295;SDS011;7749;49.964;7.890;2023-05-07T05:36:46;3.40;;;1.90;;
15295;SDS011;7749;49.964;7.890;2023-05-07T05:39:14;2.83;;;2.20;;
15295;SDS011;7749;49.964;7.890;2023-05-07T05:41:44;2.40;;;2.07;;
15295;SDS011;7749;49.964;7.890;2023-05-07T05:44:12;3.17;;;2.20;;
15295;SDS011;7749;49.964;7.890;2023-05-07T05:46:40;2.57;;;1.80;;
15295;SDS011;7749;49.964;7.890;2023-05-07T05:49:08;2.80;;;2.00;;
15295;SDS011;7749;49.964;7.890;2023-05-07T05:51:37;2.30;;;2.10;;
15295;SDS011;7749;49.964;7.890;2023-05-07T05:54:06;3.37;;;2.10;;
15295;SDS011;7749;49.964;7.890;2023-05-07T05:56:33;3.73;;;1.80;;
15295;SDS011;7749;49.964;7.890;2023-05-07T05:59:01;2.40;;;1.93;;
15295;SDS011;7749;49.964;7.890;2023-05-07T06:01:29;2.23;;;1.73;;
15295;SDS011;7749;49.964;7.890;2023-05-07T06:03:57;3.17;;;1.90;;
15295;SDS011;7749;49.964;7.890;2023-05-07T06:06:27;1.70;;;1.60;;
15295;SDS011;7749;49.964;7.890;2023-05-07T06:11:48;2.73;;;1.40;;
15295;SDS011;7749;49.964;7.890;2023-05-07T06:14:16;3.20;;;1.80;;
15295;SDS011;7749;49.964;7.890;2023-05-07T06:16:44;4.00;;;1.53;;
15295;SDS011;7749;49.964;7.890;2023-05-07T06:19:13;2.70;;;1.70;;
15295;SDS011;7749;49.964;7.890;2023-05-07T06:21:49;2.47;;;1.70;;
15295;SDS011;7749;49.964;7.890;2023-05-07T06:24:23;3.20;;;1.60;;
15295;SDS011;7749;49.964;7.890;2023-05-07T06:26:54;2.30;;;1.55;;
15295;SDS011;7749;49.964;7.890;2023-05-07T06:29:25;3.15;;;1.40;;
15295;SDS011;7749;49.964;7.890;2023-05-07T06:31:53;3.90;;;1.50;;
15295;SDS011;7749;49.964;7.890;2023-05-07T06:34:21;2.45;;;1.60;;
15295;SDS011;7749;49.964;7.890;2023-05-07T06:36:50;2.63;;;1.48;;
15295;SDS011;7749;49.964;7.890;2023-05-07T06:39:18;2.70;;;1.50;;
15295;SDS011;7749;49.964;7.890;2023-05-07T06:41:46;2.05;;;1.90;;
15295;SDS011;7749;49.964;7.890;2023-05-07T06:44:17;4.57;;;1.67;;
15295;SDS011;7749;49.964;7.890;2023-05-07T06:46:44;2.70;;;1.38;;
15295;SDS011;7749;49.964;7.890;2023-05-07T06:49:13;2.77;;;1.73;;
15295;SDS011;7749;49.964;7.890;2023-05-07T06:51:40;1.80;;;1.60;;
15295;SDS011;7749;49.964;7.890;2023-05-07T06:54:08;2.10;;;1.80;;
15295;SDS011;7749;49.964;7.890;2023-05-07T06:56:36;3.47;;;2.20;;
15295;SDS011;7749;49.964;7.890;2023-05-07T06:59:03;2.77;;;1.97;;
15295;SDS011;7749;49.964;7.890;2023-05-07T07:01:31;3.77;;;1.83;;
15295;SDS011;7749;49.964;7.890;2023-05-07T07:03:59;4.13;;;1.90;;
15295;SDS011;7749;49.964;7.890;2023-05-07T07:06:27;3.10;;;2.00;;
15295;SDS011;7749;49.964;7.890;2023-05-07T07:08:55;3.33;;;2.00;;
15295;SDS011;7749;49.964;7.890;2023-05-07T07:11:25;3.60;;;2.17;;
15295;SDS011;7749;49.964;7.890;2023-05-07T07:13:53;2.10;;;1.90;;
15295;SDS011;7749;49.964;7.890;2023-05-07T07:16:21;2.43;;;1.60;;
15295;SDS011;7749;49.964;7.890;2023-05-07T07:18:49;1.80;;;1.60;;
15295;SDS011;7749;49.964;7.890;2023-05-07T07:21:17;2.00;;;1.70;;
15295;SDS011;7749;49.964;7.890;2023-05-07T07:23:45;3.65;;;1.80;;
15295;SDS011;7749;49.964;7.890;2023-05-07T07:26:16;2.47;;;1.80;;
15295;SDS011;7749;49.964;7.890;2023-05-07T07:28:45;1.75;;;1.63;;
15295;SDS011;7749;49.964;7.890;2023-05-07T07:31:15;2.15;;;1.85;;
15295;SDS011;7749;49.964;7.890;2023-05-07T07:33:43;3.10;;;2.08;;
15295;SDS011;7749;49.964;7.890;2023-05-07T07:36:11;2.53;;;1.60;;
15295;SDS011;7749;49.964;7.890;2023-05-07T07:38:38;2.30;;;1.90;;
15295;SDS011;7749;49.964;7.890;2023-05-07T07:41:07;2.28;;;1.80;;
15295;SDS011;7749;49.964;7.890;2023-05-07T07:43:35;2.35;;;1.67;;
15295;SDS011;7749;49.964;7.890;2023-05-07T07:46:03;2.08;;;1.58;;
15295;SDS011;7749;49.964;7.890;2023-05-07T07:48:31;3.20;;;1.65;;
15295;SDS011;7749;49.964;7.890;2023-05-07T07:50:58;2.00;;;1.77;;
15295;SDS011;7749;49.964;7.890;2023-05-07T07:53:26;2.63;;;1.30;;
15295;SDS011;7749;49.964;7.890;2023-05-07T07:55:54;2.63;;;1.90;;
15295;SDS011;7749;49.964;7.890;2023-05-07T07:58:25;1.90;;;1.80;;
15295;SDS011;7749;49.964;7.890;2023-05-07T08:00:53;2.72;;;1.80;;
15295;SDS011;7749;49.964;7.890;2023-05-07T08:03:22;3.35;;;1.70;;
15295;SDS011;7749;49.964;7.890;2023-05-07T08:05:50;3.83;;;1.90;;
15295;SDS011;7749;49.964;7.890;2023-05-07T08:08:18;2.35;;;2.15;;
15295;SDS011;7749;49.964;7.890;2023-05-07T08:10:46;2.85;;;1.92;;
15295;SDS011;7749;49.964;7.890;2023-05-07T08:13:17;3.65;;;1.88;;
15295;SDS011;7749;49.964;7.890;2023-05-07T08:15:45;2.75;;;2.30;;
15295;SDS011;7749;49.964;7.890;2023-05-07T08:18:13;2.55;;;1.98;;
15295;SDS011;7749;49.964;7.890;2023-05-07T08:20:40;2.20;;;2.00;;
15295;SDS011;7749;49.964;7.890;2023-05-07T08:23:13;2.00;;;1.67;;
15295;SDS011;7749;49.964;7.890;2023-05-07T08:25:41;3.75;;;2.00;;
15295;SDS011;7749;49.964;7.890;2023-05-07T08:28:12;2.25;;;2.15;;
15295;SDS011;7749;49.964;7.890;2023-05-07T08:30:40;6.10;;;2.25;;
15295;SDS011;7749;49.964;7.890;2023-05-07T08:33:08;2.22;;;2.00;;
15295;SDS011;7749;49.964;7.890;2023-05-07T08:35:36;2.20;;;2.10;;
15295;SDS011;7749;49.964;7.890;2023-05-07T08:38:04;2.78;;;2.05;;
15295;SDS011;7749;49.964;7.890;2023-05-07T08:40:34;4.55;;;2.40;;
15295;SDS011;7749;49.964;7.890;2023-05-07T08:43:05;3.40;;;2.20;;
15295;SDS011;7749;49.964;7.890;2023-05-07T08:45:33;2.97;;;2.65;;
15295;SDS011;7749;49.964;7.890;2023-05-07T08:48:05;5.25;;;2.47;;
15295;SDS011;7749;49.964;7.890;2023-05-07T08:50:42;2.75;;;2.53;;
15295;SDS011;7749;49.964;7.890;2023-05-07T08:53:09;3.47;;;2.47;;
15295;SDS011;7749;49.964;7.890;2023-05-07T08:55:37;2.70;;;2.50;;
15295;SDS011;7749;49.964;7.890;2023-05-07T08:58:05;2.50;;;2.30;;
15295;SDS011;7749;49.964;7.890;2023-05-07T09:00:36;2.63;;;2.42;;
15295;SDS011;7749;49.964;7.890;2023-05-07T09:03:04;2.50;;;2.30;;
15295;SDS011;7749;49.964;7.890;2023-05-07T09:05:32;4.13;;;2.30;;
15295;SDS011;7749;49.964;7.890;2023-05-07T09:08:02;4.35;;;2.40;;
15295;SDS011;7749;49.964;7.890;2023-05-07T09:10:30;2.67;;;2.47;;
15295;SDS011;7749;49.964;7.890;2023-05-07T09:13:03;5.07;;;2.55;;
15295;SDS011;7749;49.964;7.890;2023-05-07T09:15:31;3.03;;;2.58;;
15295;SDS011;7749;49.964;7.890;2023-05-07T09:18:01;2.83;;;2.63;;
15295;SDS011;7749;49.964;7.890;2023-05-07T09:20:31;3.45;;;2.38;;
15295;SDS011;7749;49.964;7.890;2023-05-07T09:22:59;2.65;;;2.38;;
15295;SDS011;7749;49.964;7.890;2023-05-07T09:25:33;2.60;;;2.40;;
15295;SDS011;7749;49.964;7.890;2023-05-07T09:28:04;3.13;;;2.40;;
15295;SDS011;7749;49.964;7.890;2023-05-07T09:30:37;3.60;;;2.50;;
15295;SDS011;7749;49.964;7.890;2023-05-07T09:33:04;4.68;;;2.70;;
15295;SDS011;7749;49.964;7.890;2023-05-07T09:35:32;3.08;;;2.70;;
15295;SDS011;7749;49.964;7.890;2023-05-07T09:38:00;6.20;;;2.58;;
15295;SDS011;7749;49.964;7.890;2023-05-07T09:40:30;2.67;;;2.47;;
15295;SDS011;7749;49.964;7.890;2023-05-07T09:43:08;2.53;;;2.33;;
15295;SDS011;7749;49.964;7.890;2023-05-07T09:45:38;3.28;;;2.50;;
15295;SDS011;7749;49.964;7.890;2023-05-07T09:48:06;5.47;;;2.30;;
15295;SDS011;7749;49.964;7.890;2023-05-07T09:50:40;5.53;;;2.55;;
15295;SDS011;7749;49.964;7.890;2023-05-07T09:53:17;2.60;;;2.35;;
15295;SDS011;7749;49.964;7.890;2023-05-07T09:55:47;2.78;;;2.40;;
15295;SDS011;7749;49.964;7.890;2023-05-07T09:58:15;4.13;;;2.45;;
15295;SDS011;7749;49.964;7.890;2023-05-07T10:00:45;2.30;;;2.10;;
15295;SDS011;7749;49.964;7.890;2023-05-07T10:03:14;3.33;;;2.67;;
15295;SDS011;7749;49.964;7.890;2023-05-07T10:05:42;4.70;;;2.40;;
15295;SDS011;7749;49.964;7.890;2023-05-07T10:08:11;3.78;;;2.80;;
15295;SDS011;7749;49.964;7.890;2023-05-07T10:10:39;3.03;;;2.72;;
15295;SDS011;7749;49.964;7.890;2023-05-07T10:13:07;4.20;;;2.50;;
15295;SDS011;7749;49.964;7.890;2023-05-07T10:15:39;6.10;;;2.80;;
15295;SDS011;7749;49.964;7.890;2023-05-07T10:18:10;2.50;;;2.30;;
15295;SDS011;7749;49.964;7.890;2023-05-07T10:20:40;2.63;;;2.42;;
15295;SDS011;7749;49.964;7.890;2023-05-07T10:23:12;4.45;;;2.85;;
15295;SDS011;7749;49.964;7.890;2023-05-07T10:25:42;4.32;;;3.00;;
15295;SDS011;7749;49.964;7.890;2023-05-07T10:28:10;2.55;;;2.33;;
15295;SDS011;7749;49.964;7.890;2023-05-07T10:33:28;3.53;;;2.78;;
15295;SDS011;7749;49.964;7.890;2023-05-07T10:35:59;2.42;;;2.22;;
15295;SDS011;7749;49.964;7.890;2023-05-07T10:38:28;3.13;;;2.80;;
15295;SDS011;7749;49.964;7.890;2023-05-07T10:40:57;4.30;;;2.90;;
15295;SDS011;7749;49.964;7.890;2023-05-07T10:43:24;4.18;;;2.63;;
15295;SDS011;7749;49.964;7.890;2023-05-07T10:49:26;3.40;;;2.88;;
15295;SDS011;7749;49.964;7.890;2023-05-07T10:51:36;3.83;;;2.80;;
15295;SDS011;7749;49.964;7.890;2023-05-07T10:56:41;3.35;;;3.05;;
15295;SDS011;7749;49.964;7.890;2023-05-07T11:02:04;3.13;;;2.70;;
15295;SDS011;7749;49.964;7.890;2023-05-07T11:04:34;3.00;;;2.75;;
15295;SDS011;7749;49.964;7.890;2023-05-07T11:17:35;3.05;;;2.67;;
15295;SDS011;7749;49.964;7.890;2023-05-07T11:28:39;3.17;;;2.97;;
15295;SDS011;7749;49.964;7.890;2023-05-07T11:31:08;3.88;;;2.92;;
15295;SDS011;7749;49.964;7.890;2023-05-07T11:33:37;3.50;;;3.20;;
15295;SDS011;7749;49.964;7.890;2023-05-07T11:36:07;3.17;;;2.80;;
15295;SDS011;7749;49.964;7.890;2023-05-07T11:38:36;3.08;;;2.88;;
15295;SDS011;7749;49.964;7.890;2023-05-07T11:41:05;2.90;;;2.70;;
15295;SDS011;7749;49.964;7.890;2023-05-07T11:43:34;4.32;;;2.97;;
15295;SDS011;7749;49.964;7.890;2023-05-07T11:46:07;4.32;;;2.75;;
15295;SDS011;7749;49.964;7.890;2023-05-07T11:48:40;3.15;;;2.85;;
15295;SDS011;7749;49.964;7.890;2023-05-07T11:51:09;3.05;;;2.80;;
15295;SDS011;7749;49.964;7.890;2023-05-07T11:53:40;3.17;;;2.88;;
15295;SDS011;7749;49.964;7.890;2023-05-07T11:56:10;2.95;;;2.65;;
15295;SDS011;7749;49.964;7.890;2023-05-07T11:58:39;2.53;;;2.25;;
15295;SDS011;7749;49.964;7.890;2023-05-07T12:01:09;3.58;;;2.90;;
15295;SDS011;7749;49.964;7.890;2023-05-07T12:03:41;3.13;;;2.83;;
15295;SDS011;7749;49.964;7.890;2023-05-07T12:06:12;3.03;;;2.72;;
15295;SDS011;7749;49.964;7.890;2023-05-07T12:08:42;2.95;;;2.67;;
15295;SDS011;7749;49.964;7.890;2023-05-07T12:11:23;4.03;;;3.15;;
15295;SDS011;7749;49.964;7.890;2023-05-07T12:13:55;3.50;;;3.20;;
15295;SDS011;7749;49.964;7.890;2023-05-07T12:16:26;3.40;;;3.20;;
15295;SDS011;7749;49.964;7.890;2023-05-07T12:18:54;4.05;;;3.67;;
15295;SDS011;7749;49.964;7.890;2023-05-07T12:21:22;3.83;;;3.45;;
15295;SDS011;7749;49.964;7.890;2023-05-07T12:23:52;4.15;;;3.78;;
15295;SDS011;7749;49.964;7.890;2023-05-07T12:26:19;3.58;;;3.35;;
15295;SDS011;7749;49.964;7.890;2023-05-07T12:28:48;3.10;;;2.80;;
15295;SDS011;7749;49.964;7.890;2023-05-07T12:31:16;3.72;;;3.53;;
15295;SDS011;7749;49.964;7.890;2023-05-07T12:33:44;4.50;;;4.20;;
15295;SDS011;7749;49.964;7.890;2023-05-07T12:36:13;4.25;;;3.45;;
15295;SDS011;7749;49.964;7.890;2023-05-07T12:38:40;3.67;;;3.45;;
15295;SDS011;7749;49.964;7.890;2023-05-07T12:41:09;3.75;;;3.45;;
15295;SDS011;7749;49.964;7.890;2023-05-07T12:43:39;3.53;;;3.25;;
15295;SDS011;7749;49.964;7.890;2023-05-07T12:46:10;3.15;;;2.95;;
15295;SDS011;7749;49.964;7.890;2023-05-07T12:48:44;3.05;;;2.80;;
15295;SDS011;7749;49.964;7.890;2023-05-07T12:51:14;3.38;;;3.17;;
15295;SDS011;7749;49.964;7.890;2023-05-07T12:53:43;3.40;;;3.20;;
15295;SDS011;7749;49.964;7.890;2023-05-07T12:56:10;4.65;;;3.50;;
15295;SDS011;7749;49.964;7.890;2023-05-07T12:58:38;3.50;;;3.13;;
15295;SDS011;7749;49.964;7.890;2023-05-07T13:01:06;3.22;;;3.03;;
15295;SDS011;7749;49.964;7.890;2023-05-07T13:03:37;3.70;;;3.40;;
15295;SDS011;7749;49.964;7.890;2023-05-07T13:06:07;4.20;;;3.50;;
15295;SDS011;7749;49.964;7.890;2023-05-07T13:08:40;4.05;;;3.72;;
15295;SDS011;7749;49.964;7.890;2023-05-07T13:11:11;3.85;;;3.42;;
15295;SDS011;7749;49.964;7.890;2023-05-07T13:13:40;3.53;;;3.22;;
15295;SDS011;7749;49.964;7.890;2023-05-07T13:16:08;3.40;;;3.03;;
15295;SDS011;7749;49.964;7.890;2023-05-07T13:18:38;3.20;;;2.90;;
15295;SDS011;7749;49.964;7.890;2023-05-07T13:21:07;3.30;;;3.00;;
15295;SDS011;7749;49.964;7.890;2023-05-07T13:23:40;3.50;;;3.30;;
15295;SDS011;7749;49.964;7.890;2023-05-07T13:26:08;3.13;;;2.92;;
15295;SDS011;7749;49.964;7.890;2023-05-07T13:28:52;3.40;;;3.10;;
15295;SDS011;7749;49.964;7.890;2023-05-07T13:31:21;2.80;;;2.70;;
15295;SDS011;7749;49.964;7.890;2023-05-07T13:33:49;3.08;;;2.88;;
15295;SDS011;7749;49.964;7.890;2023-05-07T13:36:17;4.22;;;3.17;;
15295;SDS011;7749;49.964;7.890;2023-05-07T13:38:48;2.70;;;2.50;;
15295;SDS011;7749;49.964;7.890;2023-05-07T13:41:17;3.05;;;2.85;;
15295;SDS011;7749;49.964;7.890;2023-05-07T13:43:48;2.90;;;2.70;;
15295;SDS011;7749;49.964;7.890;2023-05-07T13:46:19;2.70;;;2.60;;
15295;SDS011;7749;49.964;7.890;2023-05-07T13:48:46;3.00;;;2.80;;
15295;SDS011;7749;49.964;7.890;2023-05-07T13:51:14;2.72;;;2.63;;
15295;SDS011;7749;49.964;7.890;2023-05-07T13:53:42;2.90;;;2.70;;
15295;SDS011;7749;49.964;7.890;2023-05-07T13:56:09;3.35;;;3.15;;
15295;SDS011;7749;49.964;7.890;2023-05-07T13:58:37;3.25;;;3.05;;
15295;SDS011;7749;49.964;7.890;2023-05-07T14:01:25;3.55;;;3.25;;
15295;SDS011;7749;49.964;7.890;2023-05-07T14:03:53;3.70;;;3.13;;
15295;SDS011;7749;49.964;7.890;2023-05-07T14:06:20;2.90;;;2.70;;
15295;SDS011;7749;49.964;7.890;2023-05-07T14:08:48;3.20;;;2.90;;
15295;SDS011;7749;49.964;7.890;2023-05-07T14:11:16;3.00;;;2.80;;
15295;SDS011;7749;49.964;7.890;2023-05-07T14:13:44;3.20;;;2.90;;
15295;SDS011;7749;49.964;7.890;2023-05-07T14:16:12;3.45;;;2.88;;
15295;SDS011;7749;49.964;7.890;2023-05-07T14:18:39;2.90;;;2.70;;
15295;SDS011;7749;49.964;7.890;2023-05-07T14:21:10;2.72;;;2.53;;
15295;SDS011;7749;49.964;7.890;2023-05-07T14:23:44;2.58;;;2.47;;
15295;SDS011;7749;49.964;7.890;2023-05-07T14:26:12;3.92;;;2.80;;
15295;SDS011;7749;49.964;7.890;2023-05-07T14:28:40;2.55;;;2.35;;
15295;SDS011;7749;49.964;7.890;2023-05-07T14:31:13;2.20;;;2.10;;
15295;SDS011;7749;49.964;7.890;2023-05-07T14:33:41;2.65;;;2.53;;
15295;SDS011;7749;49.964;7.890;2023-05-07T14:36:10;2.78;;;2.58;;
15295;SDS011;7749;49.964;7.890;2023-05-07T14:38:38;2.70;;;2.50;;
15295;SDS011;7749;49.964;7.890;2023-05-07T14:41:06;2.58;;;2.20;;
15295;SDS011;7749;49.964;7.890;2023-05-07T14:43:33;3.58;;;1.92;;
15295;SDS011;7749;49.964;7.890;2023-05-07T14:46:02;2.97;;;1.75;;
15295;SDS011;7749;49.964;7.890;2023-05-07T14:48:38;3.13;;;1.70;;
15295;SDS011;7749;49.964;7.890;2023-05-07T14:51:56;2.38;;;1.60;;
15295;SDS011;7749;49.964;7.890;2023-05-07T14:54:38;1.33;;;1.23;;
15295;SDS011;7749;49.964;7.890;2023-05-07T14:57:34;1.30;;;1.20;;
15295;SDS011;7749;49.964;7.890;2023-05-07T15:00:05;3.28;;;1.60;;
15295;SDS011;7749;49.964;7.890;2023-05-07T15:02:49;1.25;;;1.13;;
15295;SDS011;7749;49.964;7.890;2023-05-07T15:08:33;2.55;;;1.40;;
15295;SDS011;7749;49.964;7.890;2023-05-07T15:11:50;2.20;;;1.48;;
15295;SDS011;7749;49.964;7.890;2023-05-07T15:14:52;2.08;;;1.60;;
15295;SDS011;7749;49.964;7.890;2023-05-07T15:17:20;2.17;;;1.50;;
15295;SDS011;7749;49.964;7.890;2023-05-07T15:23:00;1.90;;;1.60;;
15295;SDS011;7749;49.964;7.890;2023-05-07T15:25:27;2.15;;;1.40;;
15295;SDS011;7749;49.964;7.890;2023-05-07T15:27:55;2.25;;;1.48;;
15295;SDS011;7749;49.964;7.890;2023-05-07T15:30:26;1.42;;;1.33;;
15295;SDS011;7749;49.964;7.890;2023-05-07T15:32:54;1.90;;;1.58;;
15295;SDS011;7749;49.964;7.890;2023-05-07T15:35:22;2.95;;;1.40;;
15295;SDS011;7749;49.964;7.890;2023-05-07T15:37:50;2.65;;;1.40;;
15295;SDS011;7749;49.964;7.890;2023-05-07T15:40:18;2.10;;;1.52;;
15295;SDS011;7749;49.964;7.890;2023-05-07T15:42:45;1.58;;;1.30;;
15295;SDS011;7749;49.964;7.890;2023-05-07T15:45:16;1.50;;;1.40;;
15295;SDS011;7749;49.964;7.890;2023-05-07T15:47:44;1.88;;;1.52;;
15295;SDS011;7749;49.964;7.890;2023-05-07T15:50:12;1.30;;;1.20;;
15295;SDS011;7749;49.964;7.890;2023-05-07T15:52:40;1.50;;;1.40;;
15295;SDS011;7749;49.964;7.890;2023-05-07T15:55:20;1.28;;;1.17;;